createdAt,value
2022-12-12T00:06:32.341Z,90.70
2022-12-12T00:16:36.197Z,96.27
2022-12-12T00:26:41.350Z,91.23
2022-12-12T00:36:45.337Z,90.37
2022-12-12T00:46:50.519Z,88.83
2022-12-12T00:56:54.411Z,89.30
2022-12-12T01:06:59.663Z,88.87
2022-12-12T01:17:03.525Z,91.60
2022-12-12T01:27:08.883Z,92.23
2022-12-12T01:37:12.565Z,91.50
2022-12-12T01:47:20.679Z,92.77
2022-12-12T01:57:30.488Z,90.30
2022-12-12T02:07:35.690Z,90.70
2022-12-12T02:18:03.680Z,86.20
2022-12-12T02:28:41.819Z,94.27
2022-12-12T02:38:55.042Z,89.60
2022-12-12T02:49:04.400Z,90.93
2022-12-12T02:59:10.166Z,84.67
2022-12-12T03:09:24.665Z,88.50
2022-12-12T03:19:36.490Z,87.23
2022-12-12T03:29:45.409Z,85.63
2022-12-12T03:39:57.073Z,85.13
2022-12-12T03:50:08.825Z,90.50
2022-12-12T04:00:16.589Z,84.93
2022-12-12T04:10:40.313Z,86.40
2022-12-12T04:21:14.579Z,87.83
2022-12-12T04:31:22.734Z,86.77
2022-12-12T04:41:30.104Z,86.37
2022-12-12T04:51:38.576Z,83.23
2022-12-12T05:01:55.241Z,84.73
2022-12-12T05:11:59.926Z,90.33
2022-12-12T05:22:05.197Z,96.67
2022-12-12T05:32:09.214Z,87.57
2022-12-12T05:42:14.284Z,83.77
2022-12-12T05:52:18.117Z,89.60
2022-12-12T06:02:23.463Z,88.60
2022-12-12T06:12:27.623Z,87.53
2022-12-12T06:22:33.079Z,87.37
2022-12-12T06:32:36.850Z,87.13
2022-12-12T06:42:47.914Z,91.40
2022-12-12T06:52:52.116Z,88.90
2022-12-12T07:02:57.296Z,89.03
2022-12-12T07:13:01.238Z,92.30
2022-12-12T07:23:06.391Z,97.17
2022-12-12T07:33:11.546Z,86.87
2022-12-12T07:43:16.801Z,94.67
2022-12-12T07:53:20.665Z,101.27
2022-12-12T08:03:25.883Z,102.33
2022-12-12T08:13:29.642Z,93.47
2022-12-12T08:23:34.906Z,91.23
2022-12-12T08:33:39.136Z,92.77
2022-12-12T08:43:45.302Z,92.63
2022-12-12T08:53:51.222Z,94.83
2022-12-12T09:03:58.064Z,89.87
2022-12-12T09:14:01.783Z,89.83
2022-12-12T09:24:07.950Z,88.80
2022-12-12T09:34:11.779Z,93.73
2022-12-12T09:44:22.658Z,91.90
2022-12-12T09:54:28.421Z,89.23
2022-12-12T10:04:42.489Z,94.53
2022-12-12T10:14:53.106Z,93.20
2022-12-12T10:25:07.930Z,94.30
2022-12-12T10:35:26.634Z,97.50
2022-12-12T10:46:09.988Z,94.63
2022-12-12T10:56:21.920Z,91.23
2022-12-12T11:06:33.262Z,90.87
2022-12-12T11:16:45.443Z,88.17
2022-12-12T11:26:57.446Z,88.07
2022-12-12T11:37:01.610Z,91.67
2022-12-12T11:47:28.865Z,95.00
2022-12-12T11:58:03.420Z,95.70
2022-12-12T12:08:24.328Z,91.07
2022-12-12T12:18:46.215Z,93.27
2022-12-12T12:29:38.510Z,87.83
2022-12-12T12:40:03.258Z,89.97
2022-12-12T12:50:19.114Z,92.83
2022-12-12T13:00:28.762Z,96.40
2022-12-12T13:10:35.459Z,85.27
2022-12-12T13:20:44.384Z,103.00
2022-12-12T13:31:12.702Z,94.37
2022-12-12T13:41:18.532Z,87.27
2022-12-12T13:51:41.485Z,88.53
2022-12-12T14:01:45.547Z,90.37
2022-12-12T14:11:51.999Z,90.83
2022-12-12T14:21:56.021Z,87.30
2022-12-12T14:32:31.616Z,96.13
2022-12-12T14:43:19.136Z,97.33
2022-12-12T14:53:33.550Z,97.70
2022-12-12T15:03:42.572Z,88.80
2022-12-12T15:13:56.743Z,95.07
2022-12-12T15:24:02.355Z,92.67
2022-12-12T15:45:03.750Z,117.27
2022-12-12T15:55:08.188Z,141.20
2022-12-12T16:05:30.377Z,118.33
2022-12-12T16:15:37.563Z,114.83
2022-12-12T16:25:42.833Z,130.73
2022-12-12T16:35:47.061Z,132.73
2022-12-12T16:45:54.258Z,128.13
2022-12-12T16:55:58.694Z,119.33
2022-12-12T17:06:04.150Z,119.00
2022-12-12T17:16:08.923Z,143.80
2022-12-12T17:26:14.506Z,138.13
2022-12-12T17:36:18.874Z,146.47
2022-12-12T17:46:27.891Z,107.17
2022-12-12T17:56:32.258Z,114.87
2022-12-12T18:06:38.103Z,112.63
2022-12-12T18:16:42.890Z,106.27
2022-12-12T18:26:52.785Z,107.90
2022-12-12T18:36:57.399Z,104.13
2022-12-12T18:47:02.728Z,96.90
2022-12-12T18:57:06.465Z,106.93
2022-12-12T19:07:11.944Z,112.40
2022-12-12T19:17:17.457Z,113.00
2022-12-12T19:27:23.576Z,113.07
2022-12-12T19:37:27.376Z,109.30
2022-12-12T19:47:33.385Z,118.20
2022-12-12T19:57:37.095Z,110.97
2022-12-12T20:07:43.648Z,107.70
2022-12-12T20:17:47.665Z,104.77
2022-12-12T20:27:53.048Z,100.70
2022-12-12T20:37:56.794Z,109.07
2022-12-12T20:48:07.445Z,114.83
2022-12-12T20:58:11.490Z,110.57
2022-12-12T21:08:17.800Z,108.83
2022-12-12T21:18:21.514Z,116.10
2022-12-12T21:28:26.695Z,108.03
2022-12-12T21:38:30.391Z,105.07
2022-12-12T21:48:36.233Z,100.90
2022-12-12T21:58:42.447Z,103.13
2022-12-12T22:09:30.013Z,117.10
2022-12-12T22:19:33.641Z,96.47
2022-12-12T22:29:38.946Z,93.13
2022-12-12T22:39:42.567Z,107.07
2022-12-12T22:49:47.566Z,92.70
2022-12-12T22:59:51.895Z,90.83
2022-12-12T23:09:59.107Z,96.33
2022-12-12T23:20:03.327Z,96.23
2022-12-12T23:30:10.802Z,90.93
2022-12-12T23:40:14.584Z,97.00
2022-12-12T23:50:19.751Z,90.37
